Time;durP1;ratioP1;P1;durP2;ratioP2;P2;SDS_P1;SDS_P2;PMS_P1;PMS_P2;Temp;Humidity;BMP_temperature;BMP_pressure;BME280_temperature;BME280_humidity;BME280_pressure;Samples;Min_cycle;Max_cycle;Signal;HPM_P1;HPM_P2
2023/01/30 00:00:54;;;;;;;19.20;10.55;;;;;;;;;;5052748;28;20075;-70
2023/01/30 00:03:21;;;;;;;17.40;9.73;;;;;;;;;;5053238;28;20112;-65
2023/01/30 00:05:47;;;;;;;19.02;9.93;;;;;;;;;;5052779;28;20443;-63
2023/01/30 00:08:13;;;;;;;21.55;10.70;;;;;;;;;;5053132;28;20021;-62
2023/01/30 06:48:23;;;;;;;16.38;8.57;;;;;;;;;;4972196;23;20058;-85
2023/01/30 06:50:49;;;;;;;18.20;8.73;;;;;;;;;;4956393;29;20035;-62
2023/01/30 06:53:15;;;;;;;19.40;11.55;;;;;;;;;;4956161;28;20038;-73
2023/01/30 06:55:41;;;;;;;21.27;11.07;;;;;;;;;;4956214;29;20019;-81
2023/01/30 06:58:08;;;;;;;21.20;12.35;;;;;;;;;;4956080;29;20446;-61
2023/01/30 07:00:35;;;;;;;25.23;14.13;;;;;;;;;;4955884;29;20047;-60
2023/01/30 07:03:01;;;;;;;22.58;12.90;;;;;;;;;;4955937;29;20099;-72
2023/01/30 07:05:30;;;;;;;21.80;12.40;;;;;;;;;;4955688;29;20027;-60
2023/01/30 07:07:56;;;;;;;22.67;11.77;;;;;;;;;;4955671;29;20024;-60
2023/01/30 07:10:25;;;;;;;21.02;11.77;;;;;;;;;;4955963;29;20501;-60
2023/01/30 07:12:52;;;;;;;21.42;11.40;;;;;;;;;;4955529;29;20062;-59
2023/01/30 07:15:18;;;;;;;18.25;10.25;;;;;;;;;;4955806;28;20050;-59
2023/01/30 07:17:44;;;;;;;17.10;9.85;;;;;;;;;;4955405;29;20066;-59
2023/01/30 07:20:10;;;;;;;18.38;10.68;;;;;;;;;;4955339;28;20063;-60
2023/01/30 07:22:36;;;;;;;18.92;10.80;;;;;;;;;;4955665;29;20023;-60
2023/01/30 07:25:03;;;;;;;19.15;11.15;;;;;;;;;;4955656;29;20038;-60
2023/01/30 07:27:29;;;;;;;26.02;16.73;;;;;;;;;;4937793;29;20039;-60
2023/01/30 07:29:55;;;;;;;26.83;16.73;;;;;;;;;;4955300;29;20082;-60
2023/01/30 07:32:21;;;;;;;19.92;11.90;;;;;;;;;;4955361;29;20166;-60
2023/01/30 07:34:47;;;;;;;21.50;11.73;;;;;;;;;;4955616;29;20430;-60
2023/01/30 07:37:14;;;;;;;25.27;13.77;;;;;;;;;;4955196;28;20062;-66
2023/01/30 07:39:40;;;;;;;36.08;15.68;;;;;;;;;;4954816;29;20122;-67
2023/01/30 07:42:06;;;;;;;22.30;11.82;;;;;;;;;;4955274;28;20369;-63
2023/01/30 07:44:33;;;;;;;24.63;12.40;;;;;;;;;;4955330;29;20037;-60
2023/01/30 07:46:59;;;;;;;21.60;11.82;;;;;;;;;;4952209;29;20056;-60
2023/01/30 07:49:25;;;;;;;18.27;10.88;;;;;;;;;;4955047;29;20471;-64
2023/01/30 07:51:51;;;;;;;21.63;12.00;;;;;;;;;;4954813;28;20027;-62
2023/01/30 07:54:17;;;;;;;20.85;12.02;;;;;;;;;;4954947;29;20027;-61
2023/01/30 07:56:44;;;;;;;19.95;11.00;;;;;;;;;;4955240;29;20114;-63
2023/01/30 07:59:10;;;;;;;16.65;9.45;;;;;;;;;;4955329;29;20027;-64
2023/01/30 08:01:37;;;;;;;17.35;10.40;;;;;;;;;;4954938;28;20460;-60
2023/01/30 08:04:03;;;;;;;18.17;9.80;;;;;;;;;;4954938;28;20038;-64
2023/01/30 08:06:29;;;;;;;20.52;11.05;;;;;;;;;;4954882;29;20035;-72
2023/01/30 08:08:55;;;;;;;17.95;10.65;;;;;;;;;;4954262;29;20031;-66
2023/01/30 08:11:21;;;;;;;18.38;11.70;;;;;;;;;;4954351;29;20031;-62
2023/01/30 08:13:47;;;;;;;18.42;10.23;;;;;;;;;;4954030;28;20515;-78
2023/01/30 08:16:13;;;;;;;20.65;11.10;;;;;;;;;;4953155;29;20036;-64
2023/01/30 08:18:39;;;;;;;16.42;9.30;;;;;;;;;;4954751;28;20521;-59
2023/01/30 08:21:06;;;;;;;18.45;10.63;;;;;;;;;;4955395;29;20039;-62
2023/01/30 08:23:33;;;;;;;15.75;9.00;;;;;;;;;;4954616;28;20430;-81
2023/01/30 08:26:00;;;;;;;17.05;9.32;;;;;;;;;;4954374;29;20037;-61
2023/01/30 08:28:26;;;;;;;17.95;9.75;;;;;;;;;;4954630;28;20375;-61
2023/01/30 08:30:56;;;;;;;19.83;9.55;;;;;;;;;;4954852;29;20034;-66
2023/01/30 08:33:22;;;;;;;21.92;12.07;;;;;;;;;;4954471;29;20470;-62
2023/01/30 08:35:48;;;;;;;18.15;11.23;;;;;;;;;;4954695;28;20080;-64
2023/01/30 08:38:15;;;;;;;22.75;13.27;;;;;;;;;;4954348;28;20383;-63
2023/01/30 08:40:41;;;;;;;57.30;31.15;;;;;;;;;;4954246;29;20039;-63
2023/01/30 08:43:07;;;;;;;35.38;19.40;;;;;;;;;;4954406;29;20034;-63
2023/01/30 08:45:34;;;;;;;24.17;14.13;;;;;;;;;;4954260;29;20387;-63
2023/01/30 08:48:00;;;;;;;19.05;11.13;;;;;;;;;;4953850;28;20570;-63
2023/01/30 08:50:26;;;;;;;18.30;10.80;;;;;;;;;;4954180;29;20031;-76
2023/01/30 08:52:52;;;;;;;15.07;8.45;;;;;;;;;;4954525;29;20143;-65
2023/01/30 08:55:19;;;;;;;15.68;9.80;;;;;;;;;;4953733;29;20110;-73
2023/01/30 08:57:45;;;;;;;16.20;9.50;;;;;;;;;;4954038;29;20024;-79
2023/01/30 09:00:12;;;;;;;15.07;8.75;;;;;;;;;;4954182;29;20215;-79
2023/01/30 09:02:38;;;;;;;17.75;9.80;;;;;;;;;;4954123;29;20028;-77
2023/01/30 09:05:04;;;;;;;15.13;8.73;;;;;;;;;;4953102;28;20027;-62
2023/01/30 09:07:30;;;;;;;18.65;9.15;;;;;;;;;;4953907;29;20031;-81
2023/01/30 09:09:56;;;;;;;17.08;9.20;;;;;;;;;;4953724;28;20114;-80
2023/01/30 09:12:23;;;;;;;17.58;8.77;;;;;;;;;;4953974;29;20379;-62
2023/01/30 09:14:51;;;;;;;16.05;9.10;;;;;;;;;;4953898;29;20447;-63
2023/01/30 09:17:17;;;;;;;16.48;8.60;;;;;;;;;;4953523;29;20034;-62
2023/01/30 09:19:43;;;;;;;16.25;8.23;;;;;;;;;;4953461;29;20031;-73
2023/01/30 09:22:10;;;;;;;27.08;12.82;;;;;;;;;;4953629;29;20467;-61
2023/01/30 09:24:36;;;;;;;22.90;11.82;;;;;;;;;;4953793;29;20027;-64
2023/01/30 09:27:02;;;;;;;18.77;8.38;;;;;;;;;;4953438;29;20028;-62
2023/01/30 09:29:28;;;;;;;21.33;11.40;;;;;;;;;;4953556;29;20042;-63
2023/01/30 09:31:57;;;;;;;19.48;10.23;;;;;;;;;;4953386;29;20077;-63
2023/01/30 09:34:27;;;;;;;19.17;10.15;;;;;;;;;;4953496;29;20219;-63
2023/01/30 09:36:58;;;;;;;20.20;10.13;;;;;;;;;;4953088;29;20035;-63
2023/01/30 09:39:24;;;;;;;18.38;10.32;;;;;;;;;;4952970;29;20039;-63
2023/01/30 09:42:14;;;;;;;20.45;11.23;;;;;;;;;;4935750;29;20027;-65
2023/01/30 09:44:43;;;;;;;60.92;28.70;;;;;;;;;;4953366;29;20097;-68
2023/01/30 09:47:10;;;;;;;21.90;11.38;;;;;;;;;;4952840;28;20090;-63
2023/01/30 09:49:48;;;;;;;29.77;15.07;;;;;;;;;;4952887;29;20371;-66
2023/01/30 09:52:23;;;;;;;30.48;18.85;;;;;;;;;;4953355;29;20027;-63
2023/01/30 09:54:49;;;;;;;18.48;10.73;;;;;;;;;;4938346;29;20629;-63
2023/01/30 09:57:25;;;;;;;20.17;11.55;;;;;;;;;;4953001;29;20086;-64
2023/01/30 09:59:53;;;;;;;27.85;13.00;;;;;;;;;;4942680;29;20063;-71
2023/01/30 10:02:23;;;;;;;25.83;14.18;;;;;;;;;;4942140;29;20455;-63
2023/01/30 10:04:49;;;;;;;19.67;10.32;;;;;;;;;;4940959;29;20481;-62
2023/01/30 10:07:37;;;;;;;19.67;10.57;;;;;;;;;;4944352;29;20023;-62
2023/01/30 10:10:03;;;;;;;20.83;10.18;;;;;;;;;;4947384;29;20023;-63
2023/01/30 10:12:54;;;;;;;22.92;11.57;;;;;;;;;;4936317;29;20024;-63
2023/01/30 10:15:29;;;;;;;24.08;12.90;;;;;;;;;;4939786;29;20046;-72
2023/01/30 10:18:01;;;;;;;26.55;13.48;;;;;;;;;;4941057;29;20082;-73
2023/01/30 10:20:36;;;;;;;24.95;12.73;;;;;;;;;;4941173;29;20039;-63
2023/01/30 10:23:10;;;;;;;18.42;9.95;;;;;;;;;;4947981;29;20035;-69
2023/01/30 10:25:48;;;;;;;24.55;11.38;;;;;;;;;;4950620;29;20027;-73
2023/01/30 10:28:14;;;;;;;19.55;10.55;;;;;;;;;;4952626;29;20472;-68
2023/01/30 10:30:41;;;;;;;17.42;9.43;;;;;;;;;;4952328;29;20057;-62
2023/01/30 10:33:33;;;;;;;16.48;9.10;;;;;;;;;;4952540;29;20114;-63
2023/01/30 10:36:03;;;;;;;15.82;8.38;;;;;;;;;;4949690;29;20090;-63
2023/01/30 10:38:49;;;;;;;13.60;8.63;;;;;;;;;;4952642;29;20031;-63
2023/01/30 10:41:21;;;;;;;14.18;8.82;;;;;;;;;;4951978;29;20081;-69
2023/01/30 10:43:53;;;;;;;17.15;8.65;;;;;;;;;;4952507;29;20424;-63
2023/01/30 10:46:38;;;;;;;15.02;8.27;;;;;;;;;;4952225;28;20053;-62
2023/01/30 10:49:06;;;;;;;16.13;9.30;;;;;;;;;;4933437;29;20058;-63
2023/01/30 10:51:43;;;;;;;16.33;9.38;;;;;;;;;;4933582;29;20477;-63
2023/01/30 10:54:12;;;;;;;16.77;9.90;;;;;;;;;;4933186;29;20471;-74
2023/01/30 10:56:57;;;;;;;18.40;9.68;;;;;;;;;;4933119;29;20087;-62
2023/01/30 10:59:42;;;;;;;19.58;9.85;;;;;;;;;;4933024;29;20028;-76
2023/01/30 11:02:25;;;;;;;14.93;9.18;;;;;;;;;;4933392;29;20032;-71
2023/01/30 11:04:58;;;;;;;17.00;9.90;;;;;;;;;;4929511;29;20071;-64
2023/01/30 11:07:29;;;;;;;16.38;9.70;;;;;;;;;;4924891;29;20032;-63
2023/01/30 11:09:56;;;;;;;16.83;9.70;;;;;;;;;;4932823;29;20028;-62
2023/01/30 11:12:23;;;;;;;17.42;9.52;;;;;;;;;;4933354;29;20086;-63
2023/01/30 11:14:59;;;;;;;14.50;9.15;;;;;;;;;;4933187;29;20027;-72
2023/01/30 11:17:44;;;;;;;15.23;9.70;;;;;;;;;;4928537;29;20036;-65
2023/01/30 11:20:17;;;;;;;16.67;9.52;;;;;;;;;;4929960;29;20047;-70
2023/01/30 11:22:46;;;;;;;18.48;9.73;;;;;;;;;;4928266;29;20495;-63
2023/01/30 11:25:24;;;;;;;15.73;9.10;;;;;;;;;;4929153;29;20079;-63
2023/01/30 11:28:03;;;;;;;15.93;9.75;;;;;;;;;;4933585;29;20118;-63
2023/01/30 11:30:33;;;;;;;16.50;9.15;;;;;;;;;;4927826;29;20397;-81
2023/01/30 11:33:25;;;;;;;21.88;11.13;;;;;;;;;;4920209;29;20032;-63
2023/01/30 11:35:55;;;;;;;17.85;9.63;;;;;;;;;;4914679;29;20066;-63
2023/01/30 11:38:23;;;;;;;18.40;9.85;;;;;;;;;;4924112;29;20032;-62
2023/01/30 11:40:49;;;;;;;17.25;10.18;;;;;;;;;;4926476;29;20118;-62
2023/01/30 11:43:15;;;;;;;16.85;10.00;;;;;;;;;;4929773;29;20035;-63
2023/01/30 11:45:44;;;;;;;15.38;9.32;;;;;;;;;;4928395;29;20043;-62
2023/01/30 11:48:29;;;;;;;16.30;9.75;;;;;;;;;;4929383;29;20106;-63
2023/01/30 11:51:00;;;;;;;16.90;9.20;;;;;;;;;;4936413;29;20043;-62
2023/01/30 11:53:29;;;;;;;15.73;9.23;;;;;;;;;;4939311;29;20567;-64
2023/01/30 11:55:57;;;;;;;18.17;10.30;;;;;;;;;;4943780;29;20047;-72
2023/01/30 11:58:23;;;;;;;24.48;13.40;;;;;;;;;;4945018;29;20065;-63
2023/01/30 12:00:49;;;;;;;25.08;13.60;;;;;;;;;;4942086;29;20040;-73
2023/01/30 12:03:20;;;;;;;27.50;13.82;;;;;;;;;;4946403;29;20019;-63
2023/01/30 12:05:46;;;;;;;19.83;10.65;;;;;;;;;;4948755;29;20032;-63
2023/01/30 12:08:13;;;;;;;25.15;12.15;;;;;;;;;;4942396;29;20054;-64
2023/01/30 12:10:43;;;;;;;21.15;10.85;;;;;;;;;;4944905;29;20118;-63
2023/01/30 12:13:19;;;;;;;19.25;10.85;;;;;;;;;;4936734;29;20387;-63
2023/01/30 12:15:49;;;;;;;18.30;10.35;;;;;;;;;;4935809;29;20079;-62
2023/01/30 12:18:15;;;;;;;19.23;10.90;;;;;;;;;;4935676;29;20035;-62
2023/01/30 12:20:59;;;;;;;23.08;11.48;;;;;;;;;;4935494;29;20050;-78
2023/01/30 12:23:43;;;;;;;19.45;11.25;;;;;;;;;;4942592;29;20031;-62
2023/01/30 12:26:19;;;;;;;23.42;12.15;;;;;;;;;;4936715;29;20031;-60
2023/01/30 12:28:53;;;;;;;19.05;11.57;;;;;;;;;;4935751;29;20042;-62
2023/01/30 12:31:25;;;;;;;25.27;12.75;;;;;;;;;;4944595;28;20039;-66
2023/01/30 12:33:54;;;;;;;20.75;11.65;;;;;;;;;;4942557;29;20028;-61
2023/01/30 12:36:23;;;;;;;21.63;11.90;;;;;;;;;;4941187;29;20035;-61
2023/01/30 12:38:49;;;;;;;22.23;12.38;;;;;;;;;;4948461;28;20038;-65
2023/01/30 12:41:30;;;;;;;22.65;12.38;;;;;;;;;;4954343;29;20391;-85
2023/01/30 12:44:12;;;;;;;22.77;12.80;;;;;;;;;;4954712;29;20031;-68
2023/01/30 12:46:46;;;;;;;24.75;12.75;;;;;;;;;;4954207;29;20066;-61
2023/01/30 12:49:18;;;;;;;23.77;12.60;;;;;;;;;;4954298;29;20089;-61
2023/01/30 12:52:07;;;;;;;25.65;13.43;;;;;;;;;;4954335;29;20475;-71
2023/01/30 12:54:52;;;;;;;26.17;13.90;;;;;;;;;;4947040;29;20074;-61
2023/01/30 12:57:24;;;;;;;32.72;15.88;;;;;;;;;;4942042;29;20038;-61
2023/01/30 12:59:55;;;;;;;30.23;15.82;;;;;;;;;;4943314;29;20040;-67
2023/01/30 13:02:21;;;;;;;34.10;17.10;;;;;;;;;;4945670;29;20488;-71
2023/01/30 13:05:03;;;;;;;28.40;13.30;;;;;;;;;;4942187;29;20155;-62
2023/01/30 13:07:39;;;;;;;24.88;12.75;;;;;;;;;;4942419;28;20035;-61
2023/01/30 13:10:10;;;;;;;26.60;14.77;;;;;;;;;;4942258;29;20117;-60
2023/01/30 13:12:39;;;;;;;31.42;15.70;;;;;;;;;;4942491;29;20030;-61
2023/01/30 13:15:11;;;;;;;28.83;14.70;;;;;;;;;;4941859;29;20036;-66
2023/01/30 13:17:37;;;;;;;29.83;14.30;;;;;;;;;;4940242;29;20036;-61
2023/01/30 13:20:14;;;;;;;27.60;14.77;;;;;;;;;;4939445;29;20036;-66
2023/01/30 13:22:59;;;;;;;33.63;17.67;;;;;;;;;;4938138;29;20994;-65
2023/01/30 13:25:40;;;;;;;30.75;16.35;;;;;;;;;;4932246;29;20032;-62
2023/01/30 13:28:12;;;;;;;31.77;15.77;;;;;;;;;;4933062;29;20028;-63
2023/01/30 13:30:39;;;;;;;31.37;16.37;;;;;;;;;;4948984;29;20039;-64
2023/01/30 13:33:09;;;;;;;29.92;16.38;;;;;;;;;;4938417;29;20266;-63
2023/01/30 13:35:41;;;;;;;33.90;17.40;;;;;;;;;;4935891;29;20041;-65
2023/01/30 13:38:09;;;;;;;25.90;14.32;;;;;;;;;;4939902;29;20036;-63
2023/01/30 13:40:39;;;;;;;30.95;15.70;;;;;;;;;;4940729;29;20050;-62
2023/01/30 13:43:09;;;;;;;30.85;16.55;;;;;;;;;;4950739;29;20028;-82
2023/01/30 13:45:37;;;;;;;34.70;16.63;;;;;;;;;;4952675;29;20024;-67
2023/01/30 13:48:06;;;;;;;31.38;16.73;;;;;;;;;;4930239;29;20079;-66
2023/01/30 13:50:32;;;;;;;36.00;17.90;;;;;;;;;;4946004;29;20035;-63
2023/01/30 13:53:07;;;;;;;37.05;18.25;;;;;;;;;;4971398;28;20089;-63
2023/01/30 13:55:33;;;;;;;51.17;25.27;;;;;;;;;;4972393;28;20053;-63
2023/01/30 13:58:24;;;;;;;38.03;19.23;;;;;;;;;;4972401;28;20101;-63
2023/01/30 14:00:56;;;;;;;39.33;19.30;;;;;;;;;;4972214;28;20042;-62
2023/01/30 14:03:22;;;;;;;;;;;;;;;;;;4972756;28;20030;-62
2023/01/30 14:05:51;;;;;;;29.05;15.32;;;;;;;;;;4972217;28;19910;-68
2023/01/30 14:08:19;;;;;;;35.22;16.05;;;;;;;;;;4972369;28;20034;-68
2023/01/30 14:10:45;;;;;;;30.83;16.35;;;;;;;;;;4971741;28;20034;-66
2023/01/30 14:13:13;;;;;;;33.78;17.00;;;;;;;;;;4971719;28;20085;-62
2023/01/30 14:15:42;;;;;;;42.72;18.60;;;;;;;;;;4971551;28;20034;-78
2023/01/30 14:18:37;;;;;;;37.95;18.67;;;;;;;;;;4971720;28;20039;-76
2023/01/30 14:21:15;;;;;;;32.50;17.80;;;;;;;;;;4892270;29;20103;-62
2023/01/30 14:23:53;;;;;;;128.90;54.25;;;;;;;;;;4893229;29;20036;-63
2023/01/30 14:26:39;;;;;;;39.30;19.15;;;;;;;;;;4893212;29;20060;-82
2023/01/30 14:29:07;;;;;;;34.78;17.70;;;;;;;;;;4881458;29;20037;-77
2023/01/30 14:31:46;;;;;;;31.50;16.67;;;;;;;;;;4868337;29;20048;-67
2023/01/30 14:34:31;;;;;;;30.98;15.82;;;;;;;;;;4874512;29;20044;-63
2023/01/30 14:36:57;;;;;;;32.63;15.88;;;;;;;;;;4874139;29;20048;-61
2023/01/30 14:39:39;;;;;;;39.58;19.20;;;;;;;;;;4873224;29;20033;-68
2023/01/30 14:42:11;;;;;;;32.90;17.48;;;;;;;;;;4865409;29;20545;-72
2023/01/30 14:45:15;;;;;;;38.97;17.50;;;;;;;;;;4864478;29;20397;-76
2023/01/30 14:47:41;;;;;;;36.90;17.60;;;;;;;;;;4834972;29;20574;-73
2023/01/30 14:50:18;;;;;;;34.75;17.35;;;;;;;;;;4836609;29;20137;-76
2023/01/30 14:52:48;;;;;;;35.50;17.50;;;;;;;;;;4835345;29;20056;-73
2023/01/30 14:55:19;;;;;;;39.08;18.08;;;;;;;;;;4836295;29;20105;-78
2023/01/30 14:57:56;;;;;;;33.03;16.90;;;;;;;;;;4877716;29;20500;-62
2023/01/30 15:00:29;;;;;;;31.50;17.83;;;;;;;;;;4910977;29;20164;-77
2023/01/30 15:02:57;;;;;;;44.63;19.88;;;;;;;;;;4914017;29;20036;-67
2023/01/30 15:05:29;;;;;;;39.78;20.83;;;;;;;;;;4915223;29;20586;-62
2023/01/30 15:07:58;;;;;;;46.63;22.10;;;;;;;;;;4915555;29;20091;-64
2023/01/30 15:10:33;;;;;;;71.18;31.83;;;;;;;;;;4915554;29;20032;-77
2023/01/30 15:13:11;;;;;;;47.03;23.45;;;;;;;;;;4915459;29;20044;-62
2023/01/30 15:15:37;;;;;;;49.83;24.00;;;;;;;;;;4915199;29;20151;-74
2023/01/30 15:18:22;;;;;;;47.30;23.33;;;;;;;;;;4929320;28;20031;-62
2023/01/30 15:20:57;;;;;;;46.13;24.42;;;;;;;;;;4955748;28;20058;-71
2023/01/30 15:23:23;;;;;;;48.38;22.48;;;;;;;;;;4956141;28;20038;-77
2023/01/30 15:25:52;;;;;;;50.38;23.05;;;;;;;;;;4955876;28;20083;-77
2023/01/30 15:28:18;;;;;;;52.13;25.27;;;;;;;;;;4955672;28;20031;-66
2023/01/30 15:30:56;;;;;;;55.28;23.42;;;;;;;;;;4955500;28;20538;-62
2023/01/30 15:33:22;;;;;;;54.30;25.83;;;;;;;;;;4955579;29;20100;-60
2023/01/30 15:35:49;;;;;;;56.08;26.10;;;;;;;;;;4955520;28;20090;-73
2023/01/30 15:38:33;;;;;;;58.03;27.63;;;;;;;;;;4955593;28;20126;-63
2023/01/30 15:41:04;;;;;;;62.88;28.80;;;;;;;;;;4947104;28;20050;-62
2023/01/30 15:43:39;;;;;;;66.07;31.20;;;;;;;;;;4936472;29;20108;-75
2023/01/30 15:46:20;;;;;;;69.03;32.63;;;;;;;;;;4950584;28;20099;-61
2023/01/30 15:49:04;;;;;;;89.78;41.53;;;;;;;;;;4948210;28;20126;-61
2023/01/30 15:51:32;;;;;;;98.15;46.00;;;;;;;;;;4953817;29;20027;-60
2023/01/30 15:53:59;;;;;;;79.90;37.10;;;;;;;;;;4955297;29;20439;-61
2023/01/30 15:56:27;;;;;;;80.07;37.08;;;;;;;;;;4955046;29;20038;-64
2023/01/30 15:58:53;;;;;;;94.28;45.05;;;;;;;;;;4946864;28;20027;-63
2023/01/30 16:01:20;;;;;;;88.90;42.10;;;;;;;;;;4946203;29;20035;-65
2023/01/30 16:03:48;;;;;;;77.68;37.08;;;;;;;;;;4947531;28;20033;-70
2023/01/30 16:06:31;;;;;;;74.05;35.13;;;;;;;;;;4954924;29;20027;-63
2023/01/30 16:09:02;;;;;;;66.25;31.65;;;;;;;;;;4937751;29;20044;-61
2023/01/30 16:11:32;;;;;;;59.95;29.42;;;;;;;;;;4936092;29;20043;-64
2023/01/30 16:13:59;;;;;;;75.30;36.25;;;;;;;;;;4935163;29;20035;-75
2023/01/30 16:16:25;;;;;;;92.93;47.28;;;;;;;;;;4935404;29;20058;-61
2023/01/30 16:18:53;;;;;;;62.75;30.08;;;;;;;;;;4935150;29;20047;-72
2023/01/30 16:21:23;;;;;;;53.80;27.13;;;;;;;;;;4965573;28;20479;-62
2023/01/30 16:23:52;;;;;;;64.10;29.38;;;;;;;;;;4973754;28;20037;-80
2023/01/30 16:26:20;;;;;;;58.67;29.13;;;;;;;;;;4973636;28;20026;-62
2023/01/30 16:28:47;;;;;;;61.03;29.30;;;;;;;;;;4973616;28;20525;-62
2023/01/30 16:31:13;;;;;;;63.55;30.00;;;;;;;;;;4973365;28;20118;-61
2023/01/30 16:33:39;;;;;;;61.97;31.60;;;;;;;;;;4973948;28;20459;-71
2023/01/30 16:36:06;;;;;;;64.97;31.88;;;;;;;;;;4973339;28;20037;-69
2023/01/30 16:38:35;;;;;;;76.30;37.50;;;;;;;;;;4973712;28;20101;-65
2023/01/30 16:41:01;;;;;;;62.88;31.08;;;;;;;;;;4973636;28;20082;-67
2023/01/30 16:43:28;;;;;;;68.65;33.70;;;;;;;;;;4973642;28;20113;-62
2023/01/30 16:45:54;;;;;;;66.43;33.72;;;;;;;;;;4964729;28;20027;-69
2023/01/30 16:48:32;;;;;;;66.65;31.40;;;;;;;;;;4954300;28;20074;-62
2023/01/30 16:50:58;;;;;;;65.55;32.20;;;;;;;;;;4954034;28;20035;-62
2023/01/30 16:53:24;;;;;;;97.40;42.47;;;;;;;;;;4953841;29;20039;-60
2023/01/30 16:55:56;;;;;;;107.95;43.97;;;;;;;;;;4954830;29;20033;-60
2023/01/30 16:58:26;;;;;;;66.63;31.52;;;;;;;;;;4958938;28;20031;-60
2023/01/30 17:00:52;;;;;;;80.05;36.42;;;;;;;;;;4973466;28;20434;-61
2023/01/30 17:03:21;;;;;;;91.45;39.05;;;;;;;;;;4973556;28;20031;-70
2023/01/30 17:05:47;;;;;;;84.13;38.20;;;;;;;;;;4972970;28;20073;-61
2023/01/30 17:08:38;;;;;;;71.28;34.03;;;;;;;;;;4973423;28;20022;-61
2023/01/30 17:11:05;;;;;;;67.43;31.25;;;;;;;;;;4973584;28;20089;-75
2023/01/30 17:13:40;;;;;;;67.80;32.67;;;;;;;;;;4972730;28;20034;-63
2023/01/30 17:16:21;;;;;;;62.85;30.00;;;;;;;;;;4971906;28;20054;-61
2023/01/30 17:18:48;;;;;;;65.88;31.40;;;;;;;;;;4972114;28;20038;-73
2023/01/30 17:21:14;;;;;;;64.43;32.20;;;;;;;;;;4971718;28;20145;-60
2023/01/30 17:23:43;;;;;;;70.85;34.85;;;;;;;;;;4972893;28;20026;-64
2023/01/30 17:26:11;;;;;;;72.75;35.83;;;;;;;;;;4972355;28;20053;-61
2023/01/30 17:28:39;;;;;;;73.88;35.22;;;;;;;;;;4965195;28;20384;-61
2023/01/30 17:31:05;;;;;;;81.32;42.42;;;;;;;;;;4942759;29;20024;-62
2023/01/30 17:33:31;;;;;;;74.68;36.03;;;;;;;;;;4943868;29;20038;-73
2023/01/30 17:35:59;;;;;;;90.45;42.40;;;;;;;;;;4941495;29;20388;-63
2023/01/30 17:38:25;;;;;;;102.57;48.78;;;;;;;;;;4942608;29;20058;-65
2023/01/30 17:40:51;;;;;;;117.32;53.47;;;;;;;;;;4949384;29;20047;-66
2023/01/30 17:43:17;;;;;;;102.00;46.75;;;;;;;;;;4952661;29;20039;-62
2023/01/30 17:45:43;;;;;;;114.35;51.40;;;;;;;;;;4953428;28;20027;-63
2023/01/30 17:48:12;;;;;;;121.53;53.00;;;;;;;;;;4946980;29;20056;-78
2023/01/30 17:50:38;;;;;;;132.40;57.25;;;;;;;;;;4937871;29;20463;-67
2023/01/30 17:53:04;;;;;;;133.68;58.30;;;;;;;;;;4939030;28;20023;-61
2023/01/30 17:55:30;;;;;;;136.10;59.47;;;;;;;;;;4939687;29;20019;-61
2023/01/30 17:57:56;;;;;;;131.48;55.97;;;;;;;;;;4935619;29;20031;-61
2023/01/30 18:00:22;;;;;;;123.88;54.92;;;;;;;;;;4949077;29;20122;-67
2023/01/30 18:02:48;;;;;;;126.60;54.65;;;;;;;;;;4937105;29;20047;-77
2023/01/30 18:05:14;;;;;;;117.78;51.83;;;;;;;;;;4936822;29;20187;-67
2023/01/30 18:07:41;;;;;;;124.65;52.60;;;;;;;;;;4937081;29;20075;-61
2023/01/30 18:10:08;;;;;;;129.90;55.47;;;;;;;;;;4937715;29;20115;-77
2023/01/30 18:12:34;;;;;;;137.00;59.38;;;;;;;;;;4938105;29;20027;-76
2023/01/30 18:15:00;;;;;;;141.43;63.03;;;;;;;;;;4946449;29;20027;-61
2023/01/30 18:17:27;;;;;;;142.55;61.28;;;;;;;;;;4951487;29;20130;-70
2023/01/30 18:19:53;;;;;;;149.02;69.32;;;;;;;;;;4966227;28;20031;-76
2023/01/30 18:22:20;;;;;;;130.45;55.83;;;;;;;;;;4960979;28;20051;-77
2023/01/30 18:24:46;;;;;;;111.15;46.10;;;;;;;;;;4953297;28;20046;-63
2023/01/30 18:27:12;;;;;;;95.55;40.80;;;;;;;;;;4952844;29;20030;-62
2023/01/30 18:29:38;;;;;;;84.18;38.17;;;;;;;;;;4952925;29;20102;-63
2023/01/30 18:32:04;;;;;;;84.38;37.38;;;;;;;;;;4949685;29;20035;-70
2023/01/30 18:34:31;;;;;;;85.13;37.95;;;;;;;;;;4959106;28;20482;-68
2023/01/30 18:36:57;;;;;;;76.22;36.63;;;;;;;;;;4974249;28;20027;-61
2023/01/30 18:39:23;;;;;;;80.38;36.95;;;;;;;;;;4955990;28;20031;-61
2023/01/30 18:41:50;;;;;;;79.78;38.03;;;;;;;;;;4956044;28;20027;-61
2023/01/30 18:44:16;;;;;;;80.80;38.17;;;;;;;;;;4974164;28;20023;-61
2023/01/30 18:46:42;;;;;;;79.60;38.63;;;;;;;;;;4974567;28;20566;-62
2023/01/30 18:49:08;;;;;;;85.00;39.60;;;;;;;;;;4975351;28;20031;-62
2023/01/30 18:51:34;;;;;;;80.57;39.58;;;;;;;;;;4974632;28;20031;-62
2023/01/30 18:54:00;;;;;;;82.93;40.63;;;;;;;;;;4975172;28;20450;-61
2023/01/30 18:56:28;;;;;;;84.82;39.58;;;;;;;;;;4975249;28;20022;-61
2023/01/30 18:59:01;;;;;;;83.50;40.05;;;;;;;;;;4974985;28;20062;-62
2023/01/30 19:01:27;;;;;;;80.40;38.20;;;;;;;;;;4975147;28;20047;-62
2023/01/30 19:03:54;;;;;;;82.72;39.40;;;;;;;;;;4975223;28;20393;-60
2023/01/30 19:06:20;;;;;;;82.60;38.65;;;;;;;;;;4974575;28;20094;-62
2023/01/30 19:08:46;;;;;;;91.20;40.10;;;;;;;;;;4961689;28;20035;-62
2023/01/30 19:13:59;;;;;;;85.95;40.45;;;;;;;;;;4955515;29;20035;-71
2023/01/30 19:16:27;;;;;;;90.78;41.60;;;;;;;;;;4955587;29;20038;-61
2023/01/30 19:18:53;;;;;;;95.50;42.92;;;;;;;;;;4955350;29;20376;-62
2023/01/30 19:21:19;;;;;;;85.43;40.03;;;;;;;;;;4955270;29;20039;-65
2023/01/30 19:23:45;;;;;;;96.53;44.92;;;;;;;;;;4954126;29;20427;-61
2023/01/30 19:26:12;;;;;;;98.75;44.63;;;;;;;;;;4954930;29;20038;-61
2023/01/30 19:28:40;;;;;;;94.50;43.03;;;;;;;;;;4959375;28;20030;-61
2023/01/30 19:31:07;;;;;;;98.93;47.05;;;;;;;;;;4974215;28;20051;-60
2023/01/30 19:33:33;;;;;;;104.03;46.63;;;;;;;;;;4974449;28;20019;-61
2023/01/30 19:36:09;;;;;;;94.70;46.10;;;;;;;;;;4974631;28;20030;-63
2023/01/30 19:38:35;;;;;;;102.13;44.50;;;;;;;;;;4962320;28;20031;-61
2023/01/30 19:41:01;;;;;;;95.40;45.42;;;;;;;;;;4954883;28;20045;-68
2023/01/30 19:43:27;;;;;;;108.30;47.95;;;;;;;;;;4954854;28;20750;-72
2023/01/30 19:45:58;;;;;;;96.50;47.10;;;;;;;;;;4955010;28;20061;-66
2023/01/30 19:48:24;;;;;;;107.63;49.25;;;;;;;;;;4953872;28;20102;-61
2023/01/30 19:50:50;;;;;;;109.32;52.83;;;;;;;;;;4955175;28;20031;-64
2023/01/30 19:53:16;;;;;;;124.15;55.30;;;;;;;;;;4954806;28;20030;-76
2023/01/30 19:55:42;;;;;;;121.18;55.67;;;;;;;;;;4954542;28;20035;-76
2023/01/30 19:58:08;;;;;;;131.10;59.78;;;;;;;;;;4955158;28;20034;-65
2023/01/30 20:00:34;;;;;;;122.00;56.33;;;;;;;;;;4955002;28;20035;-62
2023/01/30 20:03:00;;;;;;;163.35;79.47;;;;;;;;;;4954889;28;20058;-60
2023/01/30 20:05:26;;;;;;;166.07;77.13;;;;;;;;;;4955058;28;20023;-59
2023/01/30 20:07:52;;;;;;;165.57;74.78;;;;;;;;;;4954144;28;20034;-61
2023/01/30 20:10:18;;;;;;;160.75;73.63;;;;;;;;;;4954898;28;20031;-60
2023/01/30 20:12:44;;;;;;;158.85;74.97;;;;;;;;;;4954873;28;20058;-60
2023/01/30 20:15:11;;;;;;;150.48;70.20;;;;;;;;;;4954777;28;20518;-62
2023/01/30 20:17:37;;;;;;;153.98;73.03;;;;;;;;;;4954676;28;20065;-63
2023/01/30 20:20:03;;;;;;;164.73;75.65;;;;;;;;;;4953897;28;20027;-73
2023/01/30 20:22:29;;;;;;;165.88;76.18;;;;;;;;;;4954179;28;20031;-68
2023/01/30 20:24:55;;;;;;;165.35;75.07;;;;;;;;;;4954667;28;20027;-70
2023/01/30 20:27:21;;;;;;;161.63;75.65;;;;;;;;;;4954512;28;20499;-71
2023/01/30 20:29:47;;;;;;;177.20;78.78;;;;;;;;;;4954730;28;20035;-64
2023/01/30 20:32:13;;;;;;;167.00;75.82;;;;;;;;;;4953452;29;20138;-60
2023/01/30 20:34:39;;;;;;;184.00;82.13;;;;;;;;;;4953695;28;20625;-73
2023/01/30 20:37:05;;;;;;;179.00;82.95;;;;;;;;;;4954196;28;20149;-59
2023/01/30 20:39:31;;;;;;;182.25;84.57;;;;;;;;;;4954080;28;20387;-68
2023/01/30 20:41:57;;;;;;;178.18;85.07;;;;;;;;;;4954617;28;20134;-68
2023/01/30 20:44:24;;;;;;;174.63;81.68;;;;;;;;;;4954539;28;20023;-61
2023/01/30 20:46:50;;;;;;;204.80;99.25;;;;;;;;;;4953722;28;20472;-63
2023/01/30 20:49:20;;;;;;;209.65;104.65;;;;;;;;;;4954427;28;20038;-61
2023/01/30 20:51:48;;;;;;;206.05;100.68;;;;;;;;;;4954094;28;20035;-66
2023/01/30 20:54:15;;;;;;;226.45;113.45;;;;;;;;;;4954316;28;20035;-63
2023/01/30 20:56:41;;;;;;;164.23;76.43;;;;;;;;;;4954237;28;20034;-62
2023/01/30 20:59:08;;;;;;;139.98;66.20;;;;;;;;;;4953618;28;20070;-62
2023/01/30 21:01:35;;;;;;;132.23;63.17;;;;;;;;;;4953521;28;20479;-65
2023/01/30 21:04:04;;;;;;;145.32;67.38;;;;;;;;;;4944384;28;20027;-65
2023/01/30 21:06:31;;;;;;;139.63;66.82;;;;;;;;;;4942541;29;20098;-65
2023/01/30 21:08:57;;;;;;;134.13;63.53;;;;;;;;;;4942740;29;20027;-64
2023/01/30 21:11:23;;;;;;;133.65;59.95;;;;;;;;;;4949293;28;20035;-63